College Crest, Oregon
Current Conditions -  °F | °C
As of 12:54 AM on Saturday 22 Nov 2014 (Local Time) from KEUG Reporting Station
Broken Clouds Broken Clouds  
Wind Chill: 50°   Ceiling: 9500
Heat Index: 50°   Visibility: 10mi
Dew Point: 47°   Wind: 8mph
Humidity: 89%   Direction: 180°S
Pressure: 29.73"   Gusts: NA
Location:  44.0685°N, 123.082°W
Report Text: KEUG 220854Z AUTO 18007KT 10SM FEW026 SCT032 BKN095 10/08 A2973 RMK AO2 SLP067 60001 T01000083 51027
Loading
Personal Weather Stations






























Interactive Weather Map New forecast layout! Learn more

10-Day Weather Forecast

Advertisements
Track Severe Weather on mobile